Time;durP1;ratioP1;P1;durP2;ratioP2;P2;SDS_P1;SDS_P2;PMS_P1;PMS_P2;Temp;Humidity;BMP_temperature;BMP_pressure;BME280_temperature;BME280_humidity;BME280_pressure;Samples;Min_cycle;Max_cycle;Signal;HPM_P1;HPM_P2
2023/10/22 00:01:36;;;;;;;2.77;1.63;;;;;;;;;;4979759;28;20195;-86
2023/10/22 00:04:03;;;;;;;2.80;1.63;;;;;;;;;;5010438;28;20176;-85
2023/10/22 00:06:29;;;;;;;3.83;1.60;;;;;;;;;;5015327;28;20580;-85
2023/10/22 00:08:56;;;;;;;5.27;2.20;;;;;;;;;;4980713;28;20233;-85
2023/10/22 00:11:22;;;;;;;3.17;1.77;;;;;;;;;;5009241;28;20550;-85
2023/10/22 00:13:48;;;;;;;3.27;1.50;;;;;;;;;;4997999;28;20234;-84
2023/10/22 00:16:14;;;;;;;16.43;4.83;;;;;;;;;;5013258;28;20183;-83
2023/10/22 00:18:41;;;;;;;9.00;2.77;;;;;;;;;;5016872;28;20221;-84
2023/10/22 00:21:08;;;;;;;3.63;1.80;;;;;;;;;;4983705;28;20192;-84
2023/10/22 00:23:35;;;;;;;4.73;1.97;;;;;;;;;;4997596;28;20242;-84
2023/10/22 00:26:02;;;;;;;3.50;1.87;;;;;;;;;;5013107;28;20191;-84
2023/10/22 00:28:28;;;;;;;4.27;1.97;;;;;;;;;;5018511;28;20230;-84
2023/10/22 00:30:56;;;;;;;3.33;1.80;;;;;;;;;;5001587;28;20187;-84
2023/10/22 00:33:22;;;;;;;7.47;2.50;;;;;;;;;;5001105;28;20210;-84
2023/10/22 00:35:58;;;;;;;3.47;1.70;;;;;;;;;;4990913;28;20183;-84
2023/10/22 00:38:25;;;;;;;4.03;2.30;;;;;;;;;;4982867;28;20302;-84
2023/10/22 00:40:52;;;;;;;3.40;1.90;;;;;;;;;;5011266;28;20190;-84
2023/10/22 00:43:18;;;;;;;3.30;1.60;;;;;;;;;;5002181;28;20198;-83
2023/10/22 00:45:45;;;;;;;3.17;1.70;;;;;;;;;;4992296;28;20384;-83
2023/10/22 00:48:11;;;;;;;3.53;1.97;;;;;;;;;;5019970;28;20218;-84
2023/10/22 00:50:41;;;;;;;3.80;1.73;;;;;;;;;;5038328;28;20194;-84
2023/10/22 00:53:07;;;;;;;3.43;1.83;;;;;;;;;;5018020;28;20207;-84
2023/10/22 00:55:39;;;;;;;2.77;1.77;;;;;;;;;;4983494;28;20786;-84
2023/10/22 00:58:06;;;;;;;3.77;1.70;;;;;;;;;;5016536;28;20225;-83
2023/10/22 01:00:33;;;;;;;4.23;1.90;;;;;;;;;;5010924;28;20195;-84
2023/10/22 01:03:01;;;;;;;3.57;1.70;;;;;;;;;;5025452;28;20202;-84
2023/10/22 01:05:31;;;;;;;3.93;1.63;;;;;;;;;;5010968;28;20214;-84
2023/10/22 01:07:57;;;;;;;3.53;1.37;;;;;;;;;;5017205;28;20179;-84
2023/10/22 01:10:24;;;;;;;3.30;1.70;;;;;;;;;;5016817;28;20237;-84
2023/10/22 01:12:50;;;;;;;4.53;2.13;;;;;;;;;;5015295;28;20309;-84
2023/10/22 01:15:16;;;;;;;6.47;2.57;;;;;;;;;;4979449;28;20187;-84
2023/10/22 01:17:42;;;;;;;4.00;2.07;;;;;;;;;;5039434;28;20183;-84
2023/10/22 01:20:09;;;;;;;4.53;2.33;;;;;;;;;;5025741;28;20206;-84
2023/10/22 01:22:35;;;;;;;3.50;1.73;;;;;;;;;;5023817;28;20528;-84
2023/10/22 01:25:02;;;;;;;3.77;2.00;;;;;;;;;;5007327;28;20191;-84
2023/10/22 01:27:28;;;;;;;2.17;1.50;;;;;;;;;;5001650;28;20191;-84
2023/10/22 01:29:54;;;;;;;2.33;1.43;;;;;;;;;;4998419;28;20207;-84
2023/10/22 01:32:21;;;;;;;3.73;1.70;;;;;;;;;;5017429;28;20214;-84
2023/10/22 01:34:47;;;;;;;4.17;2.00;;;;;;;;;;5013247;28;20561;-83
2023/10/22 01:37:13;;;;;;;2.97;1.50;;;;;;;;;;4982150;28;20548;-84
2023/10/22 01:39:39;;;;;;;3.40;1.50;;;;;;;;;;5020412;28;20195;-84
2023/10/22 01:42:06;;;;;;;3.30;1.57;;;;;;;;;;5011716;28;20187;-84
2023/10/22 01:44:32;;;;;;;4.40;1.70;;;;;;;;;;5001522;28;20647;-84
2023/10/22 01:46:58;;;;;;;3.00;1.70;;;;;;;;;;5009513;28;20207;-84
2023/10/22 01:49:24;;;;;;;3.97;1.60;;;;;;;;;;5014168;28;20690;-84
2023/10/22 01:51:51;;;;;;;4.00;1.77;;;;;;;;;;4994947;28;20187;-84
2023/10/22 01:54:17;;;;;;;3.67;1.70;;;;;;;;;;4992783;28;20253;-84
2023/10/22 01:56:44;;;;;;;4.93;1.83;;;;;;;;;;5009685;28;20218;-84
2023/10/22 01:59:10;;;;;;;3.83;1.80;;;;;;;;;;4995752;28;20211;-84
2023/10/22 02:01:36;;;;;;;3.33;1.70;;;;;;;;;;4992624;28;20651;-84
2023/10/22 02:04:02;;;;;;;4.73;1.70;;;;;;;;;;4992643;28;20481;-83
2023/10/22 02:06:29;;;;;;;3.30;1.70;;;;;;;;;;4994544;28;20187;-83
2023/10/22 02:08:56;;;;;;;4.53;2.10;;;;;;;;;;5010998;28;20596;-84
2023/10/22 02:11:22;;;;;;;2.87;1.80;;;;;;;;;;4998617;28;20184;-84
2023/10/22 02:13:48;;;;;;;4.70;1.60;;;;;;;;;;5009299;28;20215;-84
2023/10/22 02:16:15;;;;;;;3.10;1.70;;;;;;;;;;4993137;28;20204;-84
2023/10/22 02:18:41;;;;;;;2.90;1.60;;;;;;;;;;5003566;28;20203;-84
2023/10/22 02:21:07;;;;;;;2.93;1.70;;;;;;;;;;5013388;28;20233;-84
2023/10/22 02:23:34;;;;;;;3.93;1.97;;;;;;;;;;5016936;28;20175;-84
2023/10/22 02:26:00;;;;;;;4.90;1.70;;;;;;;;;;5012363;28;20277;-84
2023/10/22 02:28:26;;;;;;;2.77;1.50;;;;;;;;;;5013885;28;20230;-83
2023/10/22 02:30:52;;;;;;;6.87;1.93;;;;;;;;;;4992045;28;20278;-84
2023/10/22 02:33:19;;;;;;;4.13;1.50;;;;;;;;;;5010678;28;20295;-84
2023/10/22 02:35:46;;;;;;;3.83;1.60;;;;;;;;;;4994895;28;20937;-84
2023/10/22 02:38:15;;;;;;;4.57;1.63;;;;;;;;;;4995109;28;20681;-83
2023/10/22 02:40:41;;;;;;;2.20;1.80;;;;;;;;;;4982307;28;20179;-83
2023/10/22 02:43:08;;;;;;;5.33;2.00;;;;;;;;;;5009087;28;20254;-83
2023/10/22 02:45:34;;;;;;;8.17;3.33;;;;;;;;;;4992701;28;20194;-83
2023/10/22 02:48:00;;;;;;;8.50;3.20;;;;;;;;;;5016247;28;20229;-84
2023/10/22 02:50:27;;;;;;;4.50;2.10;;;;;;;;;;5006214;28;20205;-84
2023/10/22 02:52:55;;;;;;;15.07;5.40;;;;;;;;;;4986192;28;20277;-83
2023/10/22 02:55:21;;;;;;;7.03;3.00;;;;;;;;;;5011655;28;20292;-83
2023/10/22 02:57:47;;;;;;;5.73;2.30;;;;;;;;;;5012782;28;20184;-83
2023/10/22 03:00:14;;;;;;;6.30;2.50;;;;;;;;;;4992783;28;20200;-84
2023/10/22 03:02:41;;;;;;;7.93;3.27;;;;;;;;;;5009117;28;20726;-83
2023/10/22 03:05:07;;;;;;;7.53;2.80;;;;;;;;;;4993355;28;20215;-84
2023/10/22 03:07:33;;;;;;;4.00;2.20;;;;;;;;;;4995335;28;20188;-83
2023/10/22 03:10:00;;;;;;;2.50;1.60;;;;;;;;;;5012788;28;20210;-84
2023/10/22 03:12:27;;;;;;;3.37;1.47;;;;;;;;;;4991974;28;20271;-83
2023/10/22 03:14:53;;;;;;;5.23;2.40;;;;;;;;;;5006229;28;20184;-83
2023/10/22 03:17:20;;;;;;;4.13;2.23;;;;;;;;;;4976602;28;20206;-83
2023/10/22 03:19:47;;;;;;;5.33;2.30;;;;;;;;;;5011039;28;20210;-83
2023/10/22 03:22:15;;;;;;;5.40;2.17;;;;;;;;;;5014274;28;20183;-84
2023/10/22 03:24:41;;;;;;;4.13;1.90;;;;;;;;;;5011887;28;20248;-84
2023/10/22 03:27:07;;;;;;;7.83;3.67;;;;;;;;;;4978139;28;20198;-83
2023/10/22 03:29:33;;;;;;;5.43;3.00;;;;;;;;;;5022736;28;20207;-84
2023/10/22 03:32:00;;;;;;;4.83;2.27;;;;;;;;;;5001266;28;20754;-84
2023/10/22 03:34:26;;;;;;;6.50;1.90;;;;;;;;;;5014010;28;20214;-84
2023/10/22 03:36:52;;;;;;;3.20;1.63;;;;;;;;;;5019463;28;20523;-84
2023/10/22 03:39:19;;;;;;;3.70;1.70;;;;;;;;;;4997178;28;20457;-83
2023/10/22 03:41:45;;;;;;;3.37;1.60;;;;;;;;;;5015346;28;20180;-83
2023/10/22 03:44:11;;;;;;;6.40;2.50;;;;;;;;;;4980861;28;20230;-84
2023/10/22 03:46:38;;;;;;;5.47;2.50;;;;;;;;;;4997668;28;20194;-83
2023/10/22 03:49:04;;;;;;;10.47;4.63;;;;;;;;;;5013332;28;20217;-83
2023/10/22 03:51:30;;;;;;;9.73;3.70;;;;;;;;;;4996408;28;20543;-84
2023/10/22 03:53:57;;;;;;;7.60;3.40;;;;;;;;;;5013723;28;20760;-84
2023/10/22 03:56:24;;;;;;;7.33;3.47;;;;;;;;;;4998149;28;20547;-84
2023/10/22 03:58:50;;;;;;;23.50;9.17;;;;;;;;;;4995932;28;20207;-83
2023/10/22 04:01:16;;;;;;;12.10;5.60;;;;;;;;;;4994502;28;20194;-83
2023/10/22 04:03:43;;;;;;;10.27;4.00;;;;;;;;;;4991953;28;20578;-83
2023/10/22 04:06:09;;;;;;;4.67;2.50;;;;;;;;;;5016186;28;20383;-83
2023/10/22 04:08:35;;;;;;;5.63;2.67;;;;;;;;;;5003997;28;20202;-84
2023/10/22 04:11:02;;;;;;;4.37;2.23;;;;;;;;;;5014190;28;20199;-84
2023/10/22 04:13:28;;;;;;;6.43;2.90;;;;;;;;;;5015008;28;20214;-83
2023/10/22 04:15:54;;;;;;;4.67;2.00;;;;;;;;;;4984770;28;20233;-83
2023/10/22 04:18:21;;;;;;;4.80;2.40;;;;;;;;;;5022323;28;20286;-84
2023/10/22 04:20:48;;;;;;;5.43;2.00;;;;;;;;;;5015466;28;20596;-83
2023/10/22 04:23:14;;;;;;;5.90;2.23;;;;;;;;;;5010922;28;20254;-84
2023/10/22 04:25:42;;;;;;;5.90;2.10;;;;;;;;;;5012367;28;20183;-83
2023/10/22 04:28:09;;;;;;;7.03;1.97;;;;;;;;;;5011903;28;20270;-84
2023/10/22 04:30:36;;;;;;;2.80;1.53;;;;;;;;;;4994241;28;20179;-83
2023/10/22 04:33:03;;;;;;;3.27;1.50;;;;;;;;;;5013712;28;20211;-83
2023/10/22 04:35:29;;;;;;;2.73;1.50;;;;;;;;;;5012138;28;20262;-84
2023/10/22 04:37:56;;;;;;;5.27;1.90;;;;;;;;;;5005684;28;20180;-84
2023/10/22 04:40:22;;;;;;;1.97;1.30;;;;;;;;;;5010876;28;20191;-83
2023/10/22 04:42:48;;;;;;;3.40;1.50;;;;;;;;;;4992415;28;20260;-84
2023/10/22 04:45:14;;;;;;;2.63;1.37;;;;;;;;;;4977903;28;20253;-84
2023/10/22 04:47:40;;;;;;;2.23;1.40;;;;;;;;;;5003601;28;20230;-83
2023/10/22 04:50:06;;;;;;;4.67;1.47;;;;;;;;;;5008343;28;20208;-84
2023/10/22 04:52:34;;;;;;;5.10;1.67;;;;;;;;;;4986858;28;20203;-83
2023/10/22 04:55:00;;;;;;;5.40;1.97;;;;;;;;;;5009575;28;20179;-84
2023/10/22 04:57:27;;;;;;;5.17;1.93;;;;;;;;;;5010073;28;20179;-84
2023/10/22 04:59:53;;;;;;;4.20;2.00;;;;;;;;;;5009415;28;20752;-83
2023/10/22 05:02:19;;;;;;;4.57;2.07;;;;;;;;;;5013853;28;20666;-84
2023/10/22 05:04:51;;;;;;;3.47;1.57;;;;;;;;;;4990398;28;20195;-84
2023/10/22 05:07:17;;;;;;;3.43;1.60;;;;;;;;;;5009382;28;20191;-84
2023/10/22 05:09:43;;;;;;;4.17;1.80;;;;;;;;;;4989095;28;20292;-83
2023/10/22 05:12:10;;;;;;;4.47;1.73;;;;;;;;;;5006986;28;20215;-84
2023/10/22 05:14:36;;;;;;;12.27;6.83;;;;;;;;;;4992134;28;20656;-83
2023/10/22 05:17:04;;;;;;;8.27;3.93;;;;;;;;;;4991275;28;20179;-84
2023/10/22 05:19:31;;;;;;;5.70;2.63;;;;;;;;;;5012666;28;20201;-84
2023/10/22 05:21:57;;;;;;;4.67;1.80;;;;;;;;;;4994144;28;20176;-83
2023/10/22 05:24:23;;;;;;;4.43;1.70;;;;;;;;;;4993454;28;20581;-84
2023/10/22 05:26:50;;;;;;;3.40;1.73;;;;;;;;;;5008504;28;20187;-83
2023/10/22 05:29:16;;;;;;;7.73;1.97;;;;;;;;;;4991413;28;20726;-83
2023/10/22 05:31:42;;;;;;;5.33;2.47;;;;;;;;;;5009005;28;20194;-84
2023/10/22 05:34:09;;;;;;;3.63;1.80;;;;;;;;;;4978617;28;20183;-83
2023/10/22 05:36:35;;;;;;;4.30;1.80;;;;;;;;;;5016412;28;20186;-84
2023/10/22 05:39:02;;;;;;;6.17;1.80;;;;;;;;;;5005245;28;20245;-84
2023/10/22 05:41:29;;;;;;;4.97;1.80;;;;;;;;;;5019648;28;20369;-84
2023/10/22 05:43:56;;;;;;;3.17;1.77;;;;;;;;;;5018800;28;20179;-84
2023/10/22 05:46:23;;;;;;;7.40;2.67;;;;;;;;;;4995195;28;20211;-84
2023/10/22 05:48:49;;;;;;;6.43;2.70;;;;;;;;;;5020572;28;20222;-84
2023/10/22 05:51:16;;;;;;;4.87;2.40;;;;;;;;;;5018408;28;20194;-84
2023/10/22 05:53:42;;;;;;;3.47;2.17;;;;;;;;;;5000304;28;20343;-84
2023/10/22 05:56:08;;;;;;;4.40;2.07;;;;;;;;;;5033696;28;20187;-84
2023/10/22 05:58:34;;;;;;;3.27;1.60;;;;;;;;;;5015219;28;20191;-84
2023/10/22 06:01:00;;;;;;;3.27;1.80;;;;;;;;;;5001389;28;20191;-84
2023/10/22 06:03:26;;;;;;;4.40;2.23;;;;;;;;;;5003139;28;20198;-83
2023/10/22 06:05:52;;;;;;;4.23;2.10;;;;;;;;;;5018282;28;20207;-84
2023/10/22 06:08:18;;;;;;;3.87;2.10;;;;;;;;;;5019784;28;20211;-83
2023/10/22 06:10:48;;;;;;;4.57;2.13;;;;;;;;;;4986937;28;20278;-84
2023/10/22 06:13:14;;;;;;;4.60;2.20;;;;;;;;;;5000749;28;20214;-84
2023/10/22 06:15:41;;;;;;;5.53;2.50;;;;;;;;;;5017017;28;20241;-83
2023/10/22 06:18:07;;;;;;;4.47;2.10;;;;;;;;;;5014229;28;20207;-84
2023/10/22 06:20:34;;;;;;;5.87;2.13;;;;;;;;;;5014897;28;20187;-84
2023/10/22 06:23:01;;;;;;;4.83;1.83;;;;;;;;;;4983914;28;20205;-84
2023/10/22 06:25:27;;;;;;;5.70;2.80;;;;;;;;;;5014758;28;20190;-84
2023/10/22 06:27:55;;;;;;;4.07;2.13;;;;;;;;;;4989234;28;20187;-84
2023/10/22 06:30:23;;;;;;;3.87;1.83;;;;;;;;;;5017527;28;20190;-83
2023/10/22 06:32:51;;;;;;;4.33;1.70;;;;;;;;;;5002615;28;20233;-84
2023/10/22 06:35:17;;;;;;;3.30;1.70;;;;;;;;;;5029467;28;20210;-83
2023/10/22 06:37:44;;;;;;;4.00;2.00;;;;;;;;;;4995470;28;20187;-83
2023/10/22 06:40:10;;;;;;;6.27;2.00;;;;;;;;;;5023633;28;20187;-85
2023/10/22 06:42:37;;;;;;;4.80;1.97;;;;;;;;;;4982426;28;20203;-82
2023/10/22 06:45:05;;;;;;;4.10;1.90;;;;;;;;;;5014944;28;20362;-83
2023/10/22 06:47:35;;;;;;;5.87;2.20;;;;;;;;;;4987060;28;20493;-81
2023/10/22 06:50:03;;;;;;;8.20;1.80;;;;;;;;;;5011871;28;20288;-85
2023/10/22 06:52:29;;;;;;;4.57;2.00;;;;;;;;;;4997118;28;20210;-82
2023/10/22 06:54:55;;;;;;;5.03;1.60;;;;;;;;;;5013175;28;20666;-81
2023/10/22 06:57:22;;;;;;;3.47;1.57;;;;;;;;;;4992944;28;20187;-84
2023/10/22 06:59:48;;;;;;;2.73;1.50;;;;;;;;;;5004047;28;20198;-81
2023/10/22 07:02:16;;;;;;;7.23;2.10;;;;;;;;;;4999678;28;20266;-85
2023/10/22 07:04:42;;;;;;;4.07;1.80;;;;;;;;;;5014811;28;20257;-86
2023/10/22 07:07:08;;;;;;;4.47;1.90;;;;;;;;;;5010050;28;20242;-88
2023/10/22 07:09:34;;;;;;;6.73;2.80;;;;;;;;;;4997663;28;20206;-82
2023/10/22 07:12:00;;;;;;;4.97;2.00;;;;;;;;;;5001005;28;20191;-82
2023/10/22 07:14:27;;;;;;;4.87;1.80;;;;;;;;;;5012373;28;20587;-84
2023/10/22 07:16:53;;;;;;;6.23;2.50;;;;;;;;;;5011644;28;20190;-80
2023/10/22 07:19:19;;;;;;;4.17;1.80;;;;;;;;;;4992812;28;20309;-78
2023/10/22 07:21:45;;;;;;;2.77;1.53;;;;;;;;;;5009756;28;20293;-79
2023/10/22 07:24:12;;;;;;;4.97;1.83;;;;;;;;;;5009581;28;20194;-80
2023/10/22 07:26:38;;;;;;;4.53;1.70;;;;;;;;;;5009627;28;20240;-79
2023/10/22 07:29:05;;;;;;;5.13;1.93;;;;;;;;;;4991736;28;20211;-80
2023/10/22 07:31:31;;;;;;;5.93;1.87;;;;;;;;;;4992527;28;20187;-79
2023/10/22 07:33:57;;;;;;;8.20;2.20;;;;;;;;;;5007037;28;20221;-79
2023/10/22 07:36:23;;;;;;;5.07;1.90;;;;;;;;;;5009896;28;20179;-79
2023/10/22 07:38:53;;;;;;;4.90;1.70;;;;;;;;;;4989807;28;20208;-79
2023/10/22 07:41:19;;;;;;;4.63;1.90;;;;;;;;;;5009588;28;20270;-79
2023/10/22 07:43:46;;;;;;;2.83;1.83;;;;;;;;;;5007732;28;20947;-79
2023/10/22 07:46:14;;;;;;;6.47;1.80;;;;;;;;;;5010263;28;20218;-80
2023/10/22 07:48:42;;;;;;;5.57;1.80;;;;;;;;;;5007953;28;20686;-81
2023/10/22 07:51:09;;;;;;;6.57;2.43;;;;;;;;;;5006311;28;20218;-80
2023/10/22 07:53:35;;;;;;;3.83;2.10;;;;;;;;;;5005976;28;20706;-79
2023/10/22 07:56:01;;;;;;;7.57;1.90;;;;;;;;;;4987612;28;20233;-79
2023/10/22 07:58:27;;;;;;;6.60;2.00;;;;;;;;;;5004009;28;20199;-77
2023/10/22 08:00:53;;;;;;;4.73;1.90;;;;;;;;;;5006438;28;20254;-77
2023/10/22 08:03:20;;;;;;;5.80;1.93;;;;;;;;;;5005325;28;20189;-79
2023/10/22 08:05:46;;;;;;;4.30;1.90;;;;;;;;;;5024429;28;20190;-79
2023/10/22 08:08:12;;;;;;;6.70;2.20;;;;;;;;;;5008912;28;20219;-78
2023/10/22 08:10:38;;;;;;;5.70;2.33;;;;;;;;;;5008360;28;20187;-81
2023/10/22 08:13:05;;;;;;;6.67;1.90;;;;;;;;;;5009211;28;20218;-79
2023/10/22 08:15:31;;;;;;;6.47;1.80;;;;;;;;;;5024177;28;20245;-79
2023/10/22 08:17:57;;;;;;;4.60;1.93;;;;;;;;;;4986292;28;20237;-79
2023/10/22 08:20:23;;;;;;;3.67;1.53;;;;;;;;;;4995436;28;20179;-79
2023/10/22 08:22:49;;;;;;;4.90;2.23;;;;;;;;;;5010031;28;20186;-79
2023/10/22 08:25:15;;;;;;;5.13;1.80;;;;;;;;;;5009005;28;20191;-79
2023/10/22 08:27:42;;;;;;;4.17;1.70;;;;;;;;;;5005861;28;20270;-79
2023/10/22 08:30:08;;;;;;;6.87;2.20;;;;;;;;;;5002678;28;20350;-81
2023/10/22 08:32:35;;;;;;;7.93;1.83;;;;;;;;;;4999063;28;20212;-78
2023/10/22 08:35:06;;;;;;;5.33;2.00;;;;;;;;;;5008615;28;20196;-80
2023/10/22 08:37:32;;;;;;;5.47;2.00;;;;;;;;;;4991354;28;20203;-81
2023/10/22 08:40:00;;;;;;;4.43;1.90;;;;;;;;;;4984322;28;20408;-80
2023/10/22 08:42:27;;;;;;;4.40;1.80;;;;;;;;;;4979599;28;20187;-81
2023/10/22 08:44:53;;;;;;;5.00;1.63;;;;;;;;;;5011901;28;20203;-83
2023/10/22 08:47:19;;;;;;;6.00;2.00;;;;;;;;;;5000824;28;20191;-80
2023/10/22 08:49:49;;;;;;;5.50;1.90;;;;;;;;;;5016217;28;20218;-82
2023/10/22 08:52:15;;;;;;;7.00;1.80;;;;;;;;;;5011916;28;20218;-81
2023/10/22 08:54:45;;;;;;;3.77;1.60;;;;;;;;;;4974759;28;20187;-82
2023/10/22 08:57:11;;;;;;;5.73;1.93;;;;;;;;;;5012994;28;20187;-82
2023/10/22 08:59:38;;;;;;;3.27;1.60;;;;;;;;;;4998239;28;20385;-81
2023/10/22 09:02:08;;;;;;;5.97;1.53;;;;;;;;;;5011170;28;20199;-83
2023/10/22 09:04:34;;;;;;;4.73;1.90;;;;;;;;;;4995510;28;20206;-83
2023/10/22 09:07:01;;;;;;;4.77;1.90;;;;;;;;;;5016267;28;20707;-81
2023/10/22 09:09:35;;;;;;;4.60;1.60;;;;;;;;;;5011808;28;20677;-81
2023/10/22 09:12:03;;;;;;;7.17;1.80;;;;;;;;;;4997454;28;20197;-80
2023/10/22 09:14:30;;;;;;;6.67;1.80;;;;;;;;;;5016759;28;20183;-81
2023/10/22 09:16:56;;;;;;;4.43;1.60;;;;;;;;;;5001259;28;20183;-81
2023/10/22 09:19:47;;;;;;;7.97;2.27;;;;;;;;;;5011627;28;20203;-81
2023/10/22 09:22:22;;;;;;;5.90;2.00;;;;;;;;;;5017433;28;20191;-81
2023/10/22 09:24:49;;;;;;;5.97;2.00;;;;;;;;;;5014196;28;20175;-80
2023/10/22 09:27:26;;;;;;;6.97;1.70;;;;;;;;;;5012013;28;20191;-81
2023/10/22 09:30:00;;;;;;;5.60;1.77;;;;;;;;;;4994889;28;20258;-81
2023/10/22 09:32:26;;;;;;;5.80;1.90;;;;;;;;;;4991246;28;20425;-80
2023/10/22 09:34:52;;;;;;;4.27;1.70;;;;;;;;;;5005214;28;20180;-83
2023/10/22 09:37:18;;;;;;;6.13;1.77;;;;;;;;;;5007149;28;20187;-80
2023/10/22 09:39:45;;;;;;;5.00;1.50;;;;;;;;;;4993354;28;20260;-81
2023/10/22 09:42:13;;;;;;;6.60;1.80;;;;;;;;;;5004743;28;20286;-80
2023/10/22 09:44:46;;;;;;;5.97;1.80;;;;;;;;;;5006525;28;20210;-81
2023/10/22 09:47:18;;;;;;;4.37;1.93;;;;;;;;;;5004042;28;20294;-81
2023/10/22 09:49:50;;;;;;;6.80;2.10;;;;;;;;;;5018157;28;20238;-80
2023/10/22 09:52:18;;;;;;;7.37;1.93;;;;;;;;;;5007529;28;20215;-81
2023/10/22 09:54:45;;;;;;;7.70;2.00;;;;;;;;;;4979519;28;20191;-80
2023/10/22 09:57:15;;;;;;;5.70;1.90;;;;;;;;;;5015425;28;20203;-81
2023/10/22 09:59:42;;;;;;;6.33;2.07;;;;;;;;;;5008533;28;20207;-81
2023/10/22 10:02:10;;;;;;;9.07;2.23;;;;;;;;;;5006753;28;20241;-80
2023/10/22 10:04:37;;;;;;;6.63;2.20;;;;;;;;;;5010746;28;20181;-81
2023/10/22 10:07:03;;;;;;;6.03;2.10;;;;;;;;;;5008948;28;20215;-89
2023/10/22 10:09:31;;;;;;;5.43;1.80;;;;;;;;;;5015199;28;20225;-88
2023/10/22 10:12:01;;;;;;;7.13;1.90;;;;;;;;;;5009765;28;20175;-86
2023/10/22 10:14:43;;;;;;;7.50;2.60;;;;;;;;;;5012857;28;20180;-87
2023/10/22 10:17:10;;;;;;;4.67;2.20;;;;;;;;;;5008267;28;20262;-85
2023/10/22 10:19:36;;;;;;;8.33;2.70;;;;;;;;;;5000049;28;20744;-85
2023/10/22 10:22:02;;;;;;;12.00;3.23;;;;;;;;;;5016404;28;20802;-81
2023/10/22 10:24:29;;;;;;;7.50;3.03;;;;;;;;;;5013190;28;20546;-83
2023/10/22 10:26:56;;;;;;;9.50;2.57;;;;;;;;;;5016666;28;20203;-86
2023/10/22 10:29:32;;;;;;;7.47;2.50;;;;;;;;;;4981847;28;20239;-86
2023/10/22 10:32:14;;;;;;;8.37;1.90;;;;;;;;;;4984517;28;20453;-86
2023/10/22 10:34:44;;;;;;;8.40;2.40;;;;;;;;;;5002114;28;20197;-86
2023/10/22 10:37:12;;;;;;;8.70;2.23;;;;;;;;;;5014186;28;20813;-86
2023/10/22 10:39:40;;;;;;;10.57;2.63;;;;;;;;;;4997135;28;20203;-86
2023/10/22 10:42:07;;;;;;;6.43;2.10;;;;;;;;;;5010127;28;20186;-86
2023/10/22 10:44:53;;;;;;;5.10;1.97;;;;;;;;;;5007799;28;20198;-86
2023/10/22 10:47:22;;;;;;;6.93;1.97;;;;;;;;;;4995918;28;20198;-86
2023/10/22 10:50:07;;;;;;;6.03;2.40;;;;;;;;;;4999276;28;20724;-88
2023/10/22 10:52:46;;;;;;;7.33;2.13;;;;;;;;;;5030902;28;20220;-87
2023/10/22 10:55:17;;;;;;;6.53;2.13;;;;;;;;;;5015401;28;20237;-86
2023/10/22 10:57:46;;;;;;;6.67;2.10;;;;;;;;;;5008372;28;20187;-87
2023/10/22 11:00:24;;;;;;;8.53;1.90;;;;;;;;;;5010250;28;20199;-87
2023/10/22 11:02:51;;;;;;;9.43;1.93;;;;;;;;;;4996689;28;20199;-88
2023/10/22 11:05:18;;;;;;;8.03;2.10;;;;;;;;;;4996402;28;20195;-88
2023/10/22 11:07:45;;;;;;;5.80;1.67;;;;;;;;;;4995753;28;20202;-86
2023/10/22 11:10:16;;;;;;;7.17;2.07;;;;;;;;;;5009791;28;20329;-87
2023/10/22 11:12:43;;;;;;;7.20;2.00;;;;;;;;;;5009926;28;20249;-87
2023/10/22 11:15:10;;;;;;;10.67;2.60;;;;;;;;;;4994751;28;20195;-86
2023/10/22 11:17:41;;;;;;;9.50;2.40;;;;;;;;;;4992628;28;20207;-87
2023/10/22 11:20:08;;;;;;;10.50;3.10;;;;;;;;;;4978319;28;20843;-86
2023/10/22 11:22:36;;;;;;;7.67;3.00;;;;;;;;;;5010462;28;20184;-87
2023/10/22 11:25:03;;;;;;;6.93;2.50;;;;;;;;;;4995190;28;20187;-86
2023/10/22 11:27:31;;;;;;;7.43;2.17;;;;;;;;;;4989946;28;20237;-87
2023/10/22 11:30:00;;;;;;;12.77;2.20;;;;;;;;;;5020240;28;20236;-87
2023/10/22 11:32:26;;;;;;;7.53;2.13;;;;;;;;;;4987729;28;20297;-86
2023/10/22 11:35:03;;;;;;;5.70;2.07;;;;;;;;;;4974365;28;20258;-86
2023/10/22 11:37:36;;;;;;;7.43;2.20;;;;;;;;;;5001207;28;20205;-86
2023/10/22 11:40:22;;;;;;;8.00;1.80;;;;;;;;;;4988354;28;21239;-85
2023/10/22 11:42:49;;;;;;;4.20;1.80;;;;;;;;;;5002947;28;20207;-87
2023/10/22 11:45:15;;;;;;;7.57;2.03;;;;;;;;;;4978785;28;20567;-86
2023/10/22 11:47:41;;;;;;;8.37;1.90;;;;;;;;;;4983582;28;20195;-87
2023/10/22 11:50:09;;;;;;;4.60;1.77;;;;;;;;;;4996036;28;20317;-87
2023/10/22 11:52:38;;;;;;;5.73;1.80;;;;;;;;;;4991875;28;20203;-87
2023/10/22 11:55:08;;;;;;;6.50;2.00;;;;;;;;;;5011964;28;20291;-86
2023/10/22 11:57:38;;;;;;;4.90;1.73;;;;;;;;;;4991451;28;20189;-86
2023/10/22 12:00:09;;;;;;;8.10;2.10;;;;;;;;;;5001036;28;20277;-87
2023/10/22 12:02:36;;;;;;;5.33;1.80;;;;;;;;;;5007171;28;20198;-86
2023/10/22 12:05:02;;;;;;;8.40;2.33;;;;;;;;;;4979707;28;20186;-86
2023/10/22 12:07:28;;;;;;;6.73;1.77;;;;;;;;;;4993191;28;20210;-86
2023/10/22 12:09:55;;;;;;;7.07;1.90;;;;;;;;;;4979177;28;20207;-88
2023/10/22 12:12:22;;;;;;;7.70;1.90;;;;;;;;;;4994351;28;20210;-88
2023/10/22 12:14:49;;;;;;;5.80;2.03;;;;;;;;;;5010483;28;20186;-88
2023/10/22 12:17:19;;;;;;;8.87;1.90;;;;;;;;;;4988180;28;20191;-88
2023/10/22 12:19:45;;;;;;;5.80;1.77;;;;;;;;;;4988717;28;20234;-87
2023/10/22 12:22:11;;;;;;;4.37;1.70;;;;;;;;;;4991146;28;20179;-87
2023/10/22 12:24:37;;;;;;;7.73;2.23;;;;;;;;;;4977713;28;20282;-87
2023/10/22 12:27:03;;;;;;;4.97;2.00;;;;;;;;;;5017318;28;20897;-87
2023/10/22 12:29:31;;;;;;;5.40;1.80;;;;;;;;;;5017607;28;20203;-88
2023/10/22 12:31:57;;;;;;;8.27;2.10;;;;;;;;;;5009865;28;20274;-87
2023/10/22 12:34:23;;;;;;;9.33;1.80;;;;;;;;;;5008393;28;20214;-87
2023/10/22 12:36:49;;;;;;;6.30;1.80;;;;;;;;;;5005881;28;20180;-87
2023/10/22 12:39:16;;;;;;;6.50;1.90;;;;;;;;;;4975104;28;20256;-88
2023/10/22 12:41:42;;;;;;;7.43;2.00;;;;;;;;;;4974942;28;20184;-88
2023/10/22 12:44:08;;;;;;;6.80;1.90;;;;;;;;;;4973574;28;20651;-88
2023/10/22 12:46:34;;;;;;;5.63;1.80;;;;;;;;;;5009960;28;20205;-87
2023/10/22 12:49:00;;;;;;;7.07;1.73;;;;;;;;;;4991077;28;20215;-87
2023/10/22 12:51:27;;;;;;;6.23;2.03;;;;;;;;;;4992808;28;20179;-88
2023/10/22 12:53:53;;;;;;;7.07;2.20;;;;;;;;;;4975144;28;20209;-88
2023/10/22 12:56:21;;;;;;;8.53;2.00;;;;;;;;;;5003751;28;20244;-87
2023/10/22 12:58:48;;;;;;;6.73;1.83;;;;;;;;;;4976347;28;20209;-87
2023/10/22 13:01:15;;;;;;;4.90;1.93;;;;;;;;;;4971664;28;20194;-87
2023/10/22 13:03:41;;;;;;;5.43;2.13;;;;;;;;;;5012541;28;20183;-87
2023/10/22 13:06:08;;;;;;;4.07;1.70;;;;;;;;;;4993510;28;20597;-87
2023/10/22 13:08:34;;;;;;;5.63;1.83;;;;;;;;;;4991457;28;20209;-87
2023/10/22 13:11:00;;;;;;;4.60;1.60;;;;;;;;;;4974261;28;20421;-88
2023/10/22 13:13:27;;;;;;;6.77;2.13;;;;;;;;;;4985178;28;20307;-87
2023/10/22 13:15:54;;;;;;;5.50;1.70;;;;;;;;;;4993509;28;20190;-87
2023/10/22 13:18:20;;;;;;;4.97;1.90;;;;;;;;;;4986672;28;20233;-87
2023/10/22 13:20:47;;;;;;;4.87;1.93;;;;;;;;;;5009518;28;20181;-88
2023/10/22 13:23:14;;;;;;;5.03;1.80;;;;;;;;;;4992275;28;20198;-88
2023/10/22 13:25:40;;;;;;;5.00;1.70;;;;;;;;;;4973418;28;20193;-86
2023/10/22 13:28:06;;;;;;;5.60;1.60;;;;;;;;;;5007023;28;20186;-87
2023/10/22 13:30:33;;;;;;;6.07;1.97;;;;;;;;;;5009764;28;20212;-85
2023/10/22 13:32:59;;;;;;;4.50;1.60;;;;;;;;;;4995340;28;20575;-85
2023/10/22 13:35:26;;;;;;;3.97;1.70;;;;;;;;;;5010360;28;20175;-85
2023/10/22 13:37:52;;;;;;;4.93;1.70;;;;;;;;;;5011474;28;20184;-82
2023/10/22 13:40:19;;;;;;;4.07;1.77;;;;;;;;;;4996250;28;20353;-83
2023/10/22 13:42:45;;;;;;;4.77;1.47;;;;;;;;;;5008699;28;20192;-84
2023/10/22 13:45:12;;;;;;;8.73;2.33;;;;;;;;;;4993076;28;20662;-84
2023/10/22 13:47:38;;;;;;;4.23;1.63;;;;;;;;;;5010656;28;20198;-83
2023/10/22 13:50:04;;;;;;;6.17;1.70;;;;;;;;;;4991991;28;20222;-84
2023/10/22 13:52:30;;;;;;;5.47;1.90;;;;;;;;;;5008257;28;21867;-84
2023/10/22 13:54:57;;;;;;;6.13;1.83;;;;;;;;;;5005616;28;20723;-82
2023/10/22 13:57:26;;;;;;;4.13;1.70;;;;;;;;;;5011428;28;20266;-83
2023/10/22 13:59:53;;;;;;;4.70;1.60;;;;;;;;;;5011446;28;20667;-82
2023/10/22 14:02:19;;;;;;;6.43;1.97;;;;;;;;;;5013174;28;20183;-83
2023/10/22 14:04:45;;;;;;;4.53;1.70;;;;;;;;;;5011160;28;20838;-81
2023/10/22 14:07:14;;;;;;;5.37;2.10;;;;;;;;;;5012947;28;20183;-88
2023/10/22 14:09:40;;;;;;;5.37;2.00;;;;;;;;;;4995134;28;20208;-84
2023/10/22 14:12:06;;;;;;;4.80;1.70;;;;;;;;;;4996555;28;20622;-83
2023/10/22 14:14:37;;;;;;;9.97;1.90;;;;;;;;;;4995825;28;20279;-82
2023/10/22 14:17:04;;;;;;;4.37;1.80;;;;;;;;;;5022561;28;22033;-82
2023/10/22 14:19:30;;;;;;;5.43;1.67;;;;;;;;;;4996155;28;20744;-82
2023/10/22 14:21:56;;;;;;;5.30;1.70;;;;;;;;;;5007171;28;20179;-83
2023/10/22 14:24:24;;;;;;;6.30;1.60;;;;;;;;;;5014457;28;20195;-85
2023/10/22 14:26:50;;;;;;;5.90;2.00;;;;;;;;;;5016553;28;20187;-82
2023/10/22 14:29:16;;;;;;;4.23;1.53;;;;;;;;;;5024829;28;20210;-83
2023/10/22 14:31:43;;;;;;;3.50;1.47;;;;;;;;;;5013265;28;20198;-83
2023/10/22 14:34:09;;;;;;;4.23;1.43;;;;;;;;;;5016332;28;20203;-83
2023/10/22 14:36:35;;;;;;;3.73;1.30;;;;;;;;;;5012404;28;20183;-83
2023/10/22 14:39:01;;;;;;;3.83;1.50;;;;;;;;;;5014301;28;20191;-82
2023/10/22 14:41:30;;;;;;;6.33;1.63;;;;;;;;;;4983469;28;20278;-84
2023/10/22 14:43:56;;;;;;;3.17;1.30;;;;;;;;;;5014614;28;20589;-83